Creston, California
Current Conditions -  °F | °C
As of 5:53 AM on Tuesday 27 Jan 2015 (Local Time) from KPRB Reporting Station
Light Rain Light Rain  
Wind Chill: 50°   Ceiling: 5000
Heat Index: 50°   Visibility: 9mi
Dew Point: 48°   Wind: 3mph
Humidity: 93%   Direction: 160°SSE
Pressure: 30.16"   Gusts: NA
Location:  35.52°N, 120.52°W
Report Text: KPRB 271353Z AUTO 16003KT 9SM -RA OVC050 10/09 A3016 RMK AO2 RAB38 SLP212 P0000 T01000089 TSNO
Loading
Personal Weather Stations






























Interactive Weather Map New forecast layout! Learn more

10-Day Weather Forecast

Advertisements
Track Severe Weather on mobile